Time;durP1;ratioP1;P1;durP2;ratioP2;P2;SDS_P1;SDS_P2;PMS_P1;PMS_P2;Temp;Humidity;BMP_temperature;BMP_pressure;BME280_temperature;BME280_humidity;BME280_pressure;Samples;Min_cycle;Max_cycle;Signal;HPM_P1;HPM_P2
2022/06/28 00:01:53;;;;;;;13.23;10.07;;;13.70;99.90;;;;;;5110240;28;20101;-52
2022/06/28 00:04:19;;;;;;;12.95;10.70;;;13.50;99.90;;;;;;5111829;27;20079;-53
2022/06/28 00:06:46;;;;;;;13.80;10.38;;;13.50;99.90;;;;;;5111502;28;20132;-53
2022/06/28 00:09:12;;;;;;;13.60;10.63;;;13.60;99.90;;;;;;5113519;27;20036;-54
2022/06/28 00:11:39;;;;;;;13.27;11.15;;;13.60;99.90;;;;;;5111713;28;20391;-54
2022/06/28 00:16:04;;;;;;;17.35;11.43;;;13.50;99.90;;;;;;5111456;27;20053;-52
2022/06/28 00:16:50;;;;;;;13.43;11.93;;;13.40;99.90;;;;;;5126844;27;20521;-50
2022/06/28 00:19:16;;;;;;;13.40;11.73;;;13.60;99.90;;;;;;5132127;27;20039;-51
2022/06/28 00:21:42;;;;;;;19.55;11.65;;;13.50;99.90;;;;;;5129726;27;20027;-53
2022/06/28 00:24:08;;;;;;;16.33;11.65;;;13.50;99.90;;;;;;5119054;27;20084;-51
2022/06/28 00:26:34;;;;;;;13.65;10.48;;;13.40;99.90;;;;;;5132008;27;20074;-56
2022/06/28 00:28:59;;;;;;;15.15;11.23;;;13.50;99.90;;;;;;5113307;27;20127;-52
2022/06/28 00:31:25;;;;;;;16.63;11.32;;;13.40;99.90;;;;;;5132129;27;20110;-49
2022/06/28 00:33:51;;;;;;;15.32;10.23;;;13.50;99.90;;;;;;5131338;27;20039;-54
2022/06/28 00:36:17;;;;;;;12.98;10.52;;;13.40;99.90;;;;;;5108701;28;20470;-52
2022/06/28 00:38:43;;;;;;;16.90;11.40;;;13.40;99.90;;;;;;5111234;28;20039;-51
2022/06/28 00:41:09;;;;;;;13.27;10.80;;;13.50;99.90;;;;;;5110832;28;20040;-50
2022/06/28 00:43:35;;;;;;;14.90;11.55;;;13.30;99.90;;;;;;5111307;28;20123;-52
2022/06/28 00:46:02;;;;;;;14.80;11.95;;;13.30;99.90;;;;;;5114933;27;20419;-51
2022/06/28 00:48:28;;;;;;;14.98;10.98;;;13.30;99.90;;;;;;5102229;28;20087;-52
2022/06/28 00:50:54;;;;;;;14.15;10.10;;;13.30;99.90;;;;;;5110880;28;20126;-52
2022/06/28 00:53:21;;;;;;;14.38;11.32;;;13.30;99.90;;;;;;5123270;27;20039;-50
2022/06/28 00:55:47;;;;;;;14.68;11.95;;;13.30;99.90;;;;;;5131283;27;20377;-54
2022/06/28 00:58:14;;;;;;;16.50;11.15;;;13.30;99.90;;;;;;5131437;27;20036;-52
2022/06/28 01:00:44;;;;;;;13.65;11.55;;;13.20;99.90;;;;;;5131510;27;20031;-53
2022/06/28 01:03:13;;;;;;;15.23;11.63;;;13.20;99.90;;;;;;5128672;27;20043;-52
2022/06/28 01:05:41;;;;;;;17.23;12.68;;;13.00;99.90;;;;;;5107892;27;20032;-53
2022/06/28 01:08:07;;;;;;;17.75;12.60;;;13.10;99.90;;;;;;5111243;28;20047;-53
2022/06/28 01:10:35;;;;;;;13.90;12.00;;;13.10;99.90;;;;;;5110378;28;20526;-53
2022/06/28 01:13:01;;;;;;;16.10;13.05;;;13.00;99.90;;;;;;5110699;28;20395;-52
2022/06/28 01:15:28;;;;;;;17.35;13.07;;;13.00;99.90;;;;;;5110800;28;20028;-53
2022/06/28 01:17:54;;;;;;;21.13;13.55;;;12.80;99.90;;;;;;5110642;28;20118;-52
2022/06/28 01:20:21;;;;;;;17.45;13.75;;;12.90;99.90;;;;;;5108891;28;20173;-52
2022/06/28 01:22:47;;;;;;;17.95;13.77;;;12.90;99.90;;;;;;5110798;28;20035;-53
2022/06/28 01:25:13;;;;;;;17.98;14.68;;;12.80;99.90;;;;;;5115248;28;20126;-54
2022/06/28 01:27:40;;;;;;;18.10;14.02;;;12.70;99.90;;;;;;5119943;28;20028;-51
2022/06/28 01:30:07;;;;;;;18.98;14.63;;;12.80;99.90;;;;;;5110456;28;20036;-51
2022/06/28 01:32:33;;;;;;;17.85;14.57;;;12.80;99.90;;;;;;5110323;28;20252;-50
2022/06/28 01:35:00;;;;;;;16.67;14.30;;;12.70;99.90;;;;;;5119228;28;20043;-52
2022/06/28 01:37:27;;;;;;;16.63;13.98;;;12.60;99.90;;;;;;5103234;28;20126;-51
2022/06/28 01:39:53;;;;;;;18.23;14.50;;;12.50;99.90;;;;;;5110331;28;20086;-52
2022/06/28 01:42:19;;;;;;;16.95;15.15;;;12.40;99.90;;;;;;5110400;28;20071;-51
2022/06/28 01:44:46;;;;;;;17.52;15.23;;;12.50;99.90;;;;;;5110630;28;20035;-53
2022/06/28 01:47:13;;;;;;;20.80;16.65;;;12.50;99.90;;;;;;5110177;28;20058;-52
2022/06/28 01:49:39;;;;;;;17.88;15.00;;;12.70;99.90;;;;;;5110120;28;20051;-52
2022/06/28 01:52:05;;;;;;;16.90;14.70;;;12.50;99.90;;;;;;5110642;28;20035;-50
2022/06/28 01:54:31;;;;;;;17.13;15.32;;;12.50;99.90;;;;;;5110610;28;20146;-53
2022/06/28 01:56:57;;;;;;;19.92;17.33;;;12.60;99.90;;;;;;5114125;28;20108;-50
2022/06/28 01:59:23;;;;;;;21.35;16.73;;;12.60;99.90;;;;;;5119034;27;20036;-54
2022/06/28 02:01:50;;;;;;;17.38;15.50;;;12.50;99.90;;;;;;5119858;27;20079;-52
2022/06/28 02:04:22;;;;;;;21.40;17.67;;;12.40;99.90;;;;;;5112913;28;20544;-53
2022/06/28 02:06:48;;;;;;;20.02;16.75;;;12.50;99.90;;;;;;5113333;28;20027;-51
2022/06/28 02:09:14;;;;;;;20.20;17.60;;;12.40;99.90;;;;;;5114946;27;20563;-51
2022/06/28 02:11:40;;;;;;;19.42;17.27;;;12.50;99.90;;;;;;5113968;28;20036;-50
2022/06/28 02:14:05;;;;;;;19.10;17.13;;;12.50;99.90;;;;;;5114071;28;20032;-51
2022/06/28 02:16:31;;;;;;;19.13;17.08;;;12.50;99.90;;;;;;5114246;28;20044;-51
2022/06/28 02:18:57;;;;;;;19.75;16.40;;;12.50;99.90;;;;;;5113809;28;20032;-53
2022/06/28 02:21:22;;;;;;;20.73;17.27;;;12.30;99.90;;;;;;5113741;28;20031;-55
2022/06/28 02:23:48;;;;;;;18.85;16.00;;;12.50;99.90;;;;;;5119414;27;20039;-53
2022/06/28 02:26:14;;;;;;;16.88;14.02;;;12.40;99.90;;;;;;5134299;27;20527;-52
2022/06/28 02:28:41;;;;;;;16.58;12.90;;;12.30;99.90;;;;;;5134151;27;20035;-53
2022/06/28 02:31:14;;;;;;;17.33;12.90;;;12.20;99.90;;;;;;5133971;27;20047;-54
2022/06/28 02:33:40;;;;;;;15.50;12.30;;;12.20;99.90;;;;;;5134304;27;20039;-49
2022/06/28 02:41:35;;;;;;;17.10;11.90;;;12.30;99.90;;;;;;5113462;28;20042;-48
2022/06/28 02:44:01;;;;;;;17.65;11.90;;;12.30;99.90;;;;;;5113560;28;20417;-52
2022/06/28 02:46:27;;;;;;;17.35;12.45;;;12.20;99.90;;;;;;5121777;27;20046;-52
2022/06/28 02:48:53;;;;;;;14.48;12.25;;;12.20;99.90;;;;;;5133347;27;20066;-50
2022/06/28 02:51:20;;;;;;;16.45;11.10;;;12.40;99.90;;;;;;5111542;28;20073;-53
2022/06/28 02:53:46;;;;;;;13.88;11.45;;;12.30;99.90;;;;;;5112208;28;20044;-53
2022/06/28 02:56:12;;;;;;;14.70;10.82;;;12.20;99.90;;;;;;5123125;27;20374;-54
2022/06/28 02:58:37;;;;;;;15.45;11.05;;;12.30;99.90;;;;;;5131900;27;20071;-51
2022/06/28 03:01:03;;;;;;;14.65;10.60;;;12.30;99.90;;;;;;5112989;28;20052;-53
2022/06/28 03:03:29;;;;;;;15.73;10.82;;;12.30;99.90;;;;;;5128574;27;20099;-53
2022/06/28 03:05:55;;;;;;;14.38;9.68;;;12.20;99.90;;;;;;5133257;27;20468;-49
2022/06/28 03:08:20;;;;;;;14.60;9.98;;;12.20;99.90;;;;;;5116090;27;20035;-52
2022/06/28 03:10:46;;;;;;;15.52;9.77;;;12.20;99.90;;;;;;5113155;28;20027;-49
2022/06/28 03:13:12;;;;;;;16.20;9.43;;;12.20;99.90;;;;;;5113010;28;20145;-53
2022/06/28 03:15:37;;;;;;;14.77;9.43;;;12.10;99.90;;;;;;5127368;27;20039;-52
2022/06/28 03:18:03;;;;;;;16.92;9.23;;;12.30;99.90;;;;;;5112522;27;20035;-49
2022/06/28 03:20:29;;;;;;;17.00;10.20;;;12.30;99.90;;;;;;5112956;28;20115;-53
2022/06/28 03:22:55;;;;;;;14.13;9.40;;;12.20;99.90;;;;;;5126497;27;20097;-52
2022/06/28 03:25:21;;;;;;;16.33;9.55;;;12.30;99.90;;;;;;5124552;27;20071;-51
2022/06/28 03:27:47;;;;;;;16.90;10.50;;;12.20;99.90;;;;;;5112603;28;20031;-52
2022/06/28 03:30:14;;;;;;;16.95;9.90;;;12.20;99.90;;;;;;5112651;28;20040;-54
2022/06/28 03:32:40;;;;;;;13.23;9.90;;;12.30;99.90;;;;;;5112579;28;20432;-53
2022/06/28 03:35:06;;;;;;;15.30;10.88;;;12.10;99.90;;;;;;5110431;28;20085;-52
2022/06/28 03:37:32;;;;;;;16.25;10.65;;;12.10;99.90;;;;;;5120515;27;20079;-53
2022/06/28 03:39:58;;;;;;;14.77;10.60;;;12.30;99.90;;;;;;5122864;27;20477;-52
2022/06/28 03:42:24;;;;;;;14.52;10.52;;;12.30;99.90;;;;;;5111102;28;20496;-51
2022/06/28 03:44:49;;;;;;;14.57;10.70;;;12.20;99.90;;;;;;5131590;27;20067;-52
2022/06/28 03:47:15;;;;;;;13.68;10.90;;;12.10;99.90;;;;;;5113539;27;20088;-52
2022/06/28 03:49:41;;;;;;;16.92;10.38;;;12.10;99.90;;;;;;5121887;27;21194;-53
2022/06/28 03:52:07;;;;;;;17.63;11.57;;;12.10;99.90;;;;;;5130939;27;20031;-51
2022/06/28 03:54:33;;;;;;;16.90;10.43;;;12.20;99.90;;;;;;5132162;27;20039;-52
2022/06/28 03:56:59;;;;;;;15.05;10.18;;;12.20;99.90;;;;;;5132838;27;20095;-54
2022/06/28 03:59:25;;;;;;;17.58;10.75;;;12.20;99.90;;;;;;5123006;27;20404;-53
2022/06/28 04:01:51;;;;;;;17.67;9.93;;;12.30;99.90;;;;;;5132222;27;20051;-52
2022/06/28 04:04:17;;;;;;;14.40;10.63;;;12.30;99.90;;;;;;5119806;27;20048;-51
2022/06/28 04:06:43;;;;;;;13.68;9.13;;;12.20;99.90;;;;;;5111475;28;20081;-52
2022/06/28 04:09:08;;;;;;;14.02;9.98;;;12.10;99.90;;;;;;5129553;27;20412;-51
2022/06/28 04:11:35;;;;;;;20.52;11.15;;;12.20;99.90;;;;;;5118499;27;20386;-50
2022/06/28 04:14:00;;;;;;;14.73;10.43;;;12.10;99.90;;;;;;5111851;28;20112;-50
2022/06/28 04:16:26;;;;;;;18.23;10.25;;;12.20;99.90;;;;;;5117650;27;20458;-53
2022/06/28 04:18:52;;;;;;;14.77;9.88;;;12.20;99.90;;;;;;5131088;27;20040;-50
2022/06/28 04:21:19;;;;;;;19.17;10.45;;;12.30;99.90;;;;;;5109665;28;20067;-50
2022/06/28 04:23:45;;;;;;;16.88;10.35;;;12.20;99.90;;;;;;5114968;27;20077;-50
2022/06/28 04:26:11;;;;;;;16.95;10.85;;;12.40;99.90;;;;;;5127884;27;20062;-52
2022/06/28 04:28:37;;;;;;;11.45;10.02;;;12.40;99.90;;;;;;5123246;27;20087;-52
2022/06/28 04:31:03;;;;;;;17.02;10.68;;;12.30;99.90;;;;;;5120529;27;20067;-51
2022/06/28 04:33:29;;;;;;;18.77;10.15;;;12.30;99.90;;;;;;5111449;28;20039;-54
2022/06/28 04:35:55;;;;;;;16.08;10.45;;;12.50;99.90;;;;;;5111415;28;20039;-54
2022/06/28 04:38:22;;;;;;;14.88;11.07;;;12.50;99.90;;;;;;5111211;28;20035;-54
2022/06/28 04:40:48;;;;;;;17.05;10.18;;;12.60;99.90;;;;;;5113670;27;20100;-52
2022/06/28 04:43:13;;;;;;;14.48;10.30;;;12.40;99.90;;;;;;5109734;27;20035;-50
2022/06/28 04:45:39;;;;;;;17.30;10.18;;;12.60;99.90;;;;;;5101669;27;20035;-53
2022/06/28 04:48:05;;;;;;;17.42;9.65;;;12.50;99.90;;;;;;5099575;28;20077;-51
2022/06/28 04:50:32;;;;;;;17.77;9.45;;;12.60;99.90;;;;;;5098142;27;20036;-49
2022/06/28 04:52:57;;;;;;;18.40;9.98;;;12.60;99.90;;;;;;5097457;28;20285;-53
2022/06/28 04:55:23;;;;;;;13.57;8.95;;;12.70;99.90;;;;;;5099413;27;20047;-52
2022/06/28 04:57:49;;;;;;;16.00;10.25;;;12.70;99.90;;;;;;5107801;28;20035;-50
2022/06/28 05:00:15;;;;;;;15.35;8.57;;;12.70;99.90;;;;;;5108267;28;20034;-51
2022/06/28 05:02:41;;;;;;;14.90;9.48;;;12.80;99.90;;;;;;5104795;28;20044;-53
2022/06/28 05:05:08;;;;;;;18.00;8.85;;;13.00;99.90;;;;;;5108602;28;20043;-52
2022/06/28 05:07:34;;;;;;;15.52;9.45;;;12.90;99.90;;;;;;5109405;28;20054;-51
2022/06/28 05:10:01;;;;;;;14.80;9.02;;;13.00;99.90;;;;;;5116071;27;20113;-49
2022/06/28 05:12:26;;;;;;;14.30;8.88;;;12.90;99.90;;;;;;5131354;27;20493;-49
2022/06/28 05:14:52;;;;;;;15.02;8.23;;;12.90;99.90;;;;;;5130919;27;20078;-54
2022/06/28 05:17:18;;;;;;;14.48;8.73;;;13.00;99.90;;;;;;5119885;27;20088;-51
2022/06/28 05:19:44;;;;;;;16.38;9.85;;;13.00;99.90;;;;;;5129924;27;20039;-49
2022/06/28 05:22:10;;;;;;;15.93;9.02;;;13.10;99.90;;;;;;5120907;27;20044;-54
2022/06/28 05:24:36;;;;;;;13.23;8.55;;;13.30;99.90;;;;;;5110749;27;20032;-54
2022/06/28 05:27:02;;;;;;;19.10;8.90;;;13.30;99.90;;;;;;5112427;28;20080;-53
2022/06/28 05:29:28;;;;;;;16.15;9.00;;;13.30;99.90;;;;;;5115632;28;20078;-50
2022/06/28 05:31:54;;;;;;;17.63;9.05;;;13.40;99.90;;;;;;5118896;28;20067;-52
2022/06/28 05:34:20;;;;;;;21.05;9.13;;;13.80;99.90;;;;;;5114162;28;20084;-54
2022/06/28 05:36:45;;;;;;;16.55;7.30;;;13.80;99.90;;;;;;5113264;28;20035;-50
2022/06/28 05:39:11;;;;;;;15.55;6.97;;;13.90;99.90;;;;;;5116186;28;20493;-51
2022/06/28 05:41:38;;;;;;;15.20;7.22;;;13.80;99.90;;;;;;5120682;28;20024;-50
2022/06/28 05:44:04;;;;;;;13.15;6.60;;;14.00;99.90;;;;;;5127892;28;20039;-49
2022/06/28 05:46:30;;;;;;;14.00;5.40;;;13.90;99.90;;;;;;5111251;28;20084;-51
2022/06/28 05:48:56;;;;;;;13.07;5.82;;;14.30;99.90;;;;;;5113488;28;20051;-53
2022/06/28 05:51:22;;;;;;;14.75;5.63;;;14.40;99.90;;;;;;5110465;28;20039;-52
2022/06/28 05:53:48;;;;;;;14.52;4.75;;;14.40;99.90;;;;;;5125160;28;20031;-50
2022/06/28 05:56:13;;;;;;;16.25;4.32;;;14.50;99.90;;;;;;5113662;28;20055;-50
2022/06/28 05:58:39;;;;;;;13.63;4.32;;;14.60;99.90;;;;;;5113475;28;20038;-52
2022/06/28 06:01:05;;;;;;;19.60;4.65;;;14.60;99.90;;;;;;5124949;28;20035;-51
2022/06/28 06:03:32;;;;;;;11.63;3.42;;;14.80;99.90;;;;;;5131012;28;20043;-52
2022/06/28 06:05:57;;;;;;;15.02;4.07;;;14.80;99.90;;;;;;5130314;28;20074;-49
2022/06/28 06:08:23;;;;;;;12.90;3.88;;;14.90;99.90;;;;;;5130229;28;20081;-51
2022/06/28 06:10:48;;;;;;;12.52;3.33;;;14.80;99.90;;;;;;5122754;28;20096;-51
2022/06/28 06:13:14;;;;;;;12.07;3.50;;;14.90;99.90;;;;;;5114375;28;20760;-53
2022/06/28 06:15:40;;;;;;;9.98;3.38;;;15.00;99.90;;;;;;5114377;28;20043;-50
2022/06/28 06:18:06;;;;;;;10.13;4.28;;;14.90;99.90;;;;;;5109927;28;20047;-50
2022/06/28 06:20:32;;;;;;;11.95;4.00;;;15.10;99.90;;;;;;5129028;28;20031;-51
2022/06/28 06:22:57;;;;;;;10.18;3.30;;;14.90;99.90;;;;;;5115969;28;20032;-53
2022/06/28 06:25:23;;;;;;;14.80;3.65;;;15.10;99.90;;;;;;5110382;28;20032;-50
2022/06/28 06:27:49;;;;;;;19.70;4.40;;;15.00;99.90;;;;;;5123047;28;20478;-54
2022/06/28 06:30:14;;;;;;;13.45;4.07;;;15.20;99.90;;;;;;5109467;28;20043;-49
2022/06/28 06:32:40;;;;;;;15.10;4.20;;;15.30;99.90;;;;;;5128613;28;20478;-52
2022/06/28 06:35:07;;;;;;;17.10;4.03;;;15.40;99.90;;;;;;5115419;28;20035;-53
2022/06/28 06:37:33;;;;;;;14.15;4.18;;;15.30;99.90;;;;;;5125783;28;20046;-52
2022/06/28 06:39:58;;;;;;;14.23;4.40;;;15.50;99.90;;;;;;5130678;28;20772;-52
2022/06/28 06:42:24;;;;;;;17.63;4.82;;;15.30;99.90;;;;;;5127912;27;20039;-54
2022/06/28 06:44:50;;;;;;;14.35;4.10;;;15.40;99.90;;;;;;5117824;27;20072;-53
2022/06/28 06:47:16;;;;;;;24.80;5.20;;;15.40;99.90;;;;;;5130375;27;20061;-51
2022/06/28 06:49:41;;;;;;;27.55;8.80;;;15.60;99.90;;;;;;5120023;27;20394;-53
2022/06/28 06:52:07;;;;;;;17.27;4.85;;;15.50;99.90;;;;;;5113454;28;20542;-51
2022/06/28 06:54:33;;;;;;;15.57;5.03;;;15.50;99.90;;;;;;5121182;27;20413;-53
2022/06/28 06:56:58;;;;;;;15.85;4.43;;;15.80;99.90;;;;;;5133957;27;20027;-53
2022/06/28 06:59:24;;;;;;;15.52;5.05;;;15.60;99.90;;;;;;5121023;27;20529;-51
2022/06/28 07:01:50;;;;;;;14.77;5.18;;;15.70;99.90;;;;;;5123844;27;20051;-53
2022/06/28 07:04:16;;;;;;;17.73;4.82;;;15.80;99.90;;;;;;5134113;27;20039;-54
2022/06/28 07:06:42;;;;;;;16.00;4.88;;;15.70;99.90;;;;;;5124698;27;20147;-50
2022/06/28 07:09:08;;;;;;;24.15;5.05;;;16.00;99.90;;;;;;5125577;27;20035;-54
2022/06/28 07:11:34;;;;;;;16.63;4.50;;;16.00;99.90;;;;;;5132224;27;20431;-53
2022/06/28 07:14:01;;;;;;;16.85;5.10;;;16.00;99.90;;;;;;5133675;27;20051;-50
2022/06/28 07:16:27;;;;;;;16.33;5.13;;;16.10;99.90;;;;;;5122935;27;20043;-55
2022/06/28 07:18:53;;;;;;;15.82;4.63;;;16.00;99.90;;;;;;5120474;27;20470;-49
2022/06/28 07:21:18;;;;;;;18.08;5.10;;;16.00;99.90;;;;;;5112737;28;20059;-53
2022/06/28 07:23:44;;;;;;;11.82;4.53;;;16.10;99.90;;;;;;5126551;27;20035;-50
2022/06/28 07:26:10;;;;;;;9.85;4.78;;;16.10;99.90;;;;;;5108178;27;20035;-52
2022/06/28 07:28:36;;;;;;;13.27;4.80;;;16.40;99.90;;;;;;5131714;27;20121;-55
2022/06/28 07:31:02;;;;;;;18.45;5.30;;;16.40;99.90;;;;;;5119959;27;20475;-52
2022/06/28 07:33:27;;;;;;;15.43;5.35;;;16.60;99.90;;;;;;5118747;27;20081;-53
2022/06/28 07:35:53;;;;;;;14.50;5.57;;;16.70;99.90;;;;;;5114749;27;20040;-52
2022/06/28 07:38:19;;;;;;;16.20;5.07;;;16.80;99.90;;;;;;5133108;27;20524;-51
2022/06/28 07:40:44;;;;;;;16.08;5.00;;;16.90;99.90;;;;;;5123071;27;20099;-54
2022/06/28 07:43:10;;;;;;;11.50;4.63;;;16.90;99.90;;;;;;5118832;27;20083;-52
2022/06/28 07:45:36;;;;;;;14.52;4.78;;;16.90;99.90;;;;;;5088122;28;20035;-52
2022/06/28 07:48:03;;;;;;;13.43;3.95;;;16.90;99.90;;;;;;5125656;27;20454;-54
2022/06/28 07:53:14;;;;;;;14.13;3.72;;;17.20;99.90;;;;;;5132321;27;20050;-52
2022/06/28 07:55:39;;;;;;;17.98;3.83;;;17.40;99.90;;;;;;5124577;27;20394;-49
2022/06/28 07:58:06;;;;;;;11.70;2.95;;;17.50;99.90;;;;;;5116628;27;20023;-51
2022/06/28 08:00:32;;;;;;;13.82;2.65;;;17.30;99.90;;;;;;5124749;27;20027;-54
2022/06/28 08:02:58;;;;;;;15.75;3.03;;;17.10;99.90;;;;;;5120917;27;20131;-50
2022/06/28 08:05:24;;;;;;;13.57;2.65;;;17.10;99.90;;;;;;5132524;27;20118;-54
2022/06/28 08:07:50;;;;;;;14.15;2.90;;;17.00;99.90;;;;;;5115791;27;20117;-50
2022/06/28 08:10:17;;;;;;;12.52;2.40;;;17.00;99.90;;;;;;5127861;27;20055;-53
2022/06/28 08:12:43;;;;;;;11.52;2.40;;;17.10;99.90;;;;;;5124256;27;20050;-52
2022/06/28 08:15:09;;;;;;;7.13;1.63;;;17.20;99.90;;;;;;5121271;27;20040;-53
2022/06/28 08:17:35;;;;;;;10.23;2.42;;;17.20;99.90;;;;;;5124978;27;20397;-55
2022/06/28 08:20:01;;;;;;;15.55;3.47;;;17.20;99.90;;;;;;5122617;27;20106;-55
2022/06/28 08:22:27;;;;;;;10.40;2.67;;;17.40;99.90;;;;;;5132103;27;20045;-53
2022/06/28 08:24:53;;;;;;;13.38;2.90;;;17.60;99.90;;;;;;5131914;27;20035;-52
2022/06/28 08:27:18;;;;;;;11.93;2.40;;;17.70;99.90;;;;;;5132278;27;20147;-51
2022/06/28 08:29:45;;;;;;;10.98;2.15;;;17.90;99.90;;;;;;5124306;27;20077;-52
2022/06/28 08:32:11;;;;;;;9.02;2.00;;;17.80;99.90;;;;;;5093293;28;20052;-52
2022/06/28 08:34:38;;;;;;;8.00;1.60;;;17.80;99.90;;;;;;5111749;28;20042;-51
2022/06/28 08:37:04;;;;;;;11.82;1.95;;;18.00;99.90;;;;;;5122683;27;20126;-51
2022/06/28 08:39:30;;;;;;;5.70;1.48;;;18.20;99.90;;;;;;5113732;27;20444;-53
2022/06/28 08:42:02;;;;;;;7.18;1.60;;;18.20;99.90;;;;;;5132005;27;20106;-53
2022/06/28 08:44:31;;;;;;;6.68;1.40;;;18.30;99.90;;;;;;5132049;27;20393;-50
2022/06/28 08:46:58;;;;;;;7.60;1.58;;;18.40;99.90;;;;;;5132146;27;20062;-51
2022/06/28 08:49:44;;;;;;;12.00;1.80;;;18.30;99.90;;;;;;5126188;27;20103;-52
2022/06/28 08:52:10;;;;;;;6.13;1.40;;;18.50;99.90;;;;;;5131727;27;20031;-54
2022/06/28 08:54:35;;;;;;;8.02;1.70;;;18.60;99.90;;;;;;5131733;27;20038;-50
2022/06/28 08:57:05;;;;;;;7.22;1.70;;;18.90;99.90;;;;;;5123358;27;20398;-54
2022/06/28 08:59:31;;;;;;;6.03;1.38;;;19.00;99.90;;;;;;5111272;28;20118;-52
2022/06/28 09:01:56;;;;;;;6.60;1.50;;;19.00;99.90;;;;;;5110781;28;20134;-53
2022/06/28 09:04:22;;;;;;;7.50;1.80;;;19.00;99.90;;;;;;5112086;27;20123;-54
2022/06/28 09:06:48;;;;;;;7.10;2.10;;;18.90;99.90;;;;;;5130918;27;20027;-50
2022/06/28 09:09:14;;;;;;;8.18;1.65;;;18.80;99.90;;;;;;5110738;28;20035;-52
2022/06/28 09:11:42;;;;;;;7.20;1.75;;;19.00;99.90;;;;;;5115526;27;20440;-51
2022/06/28 09:14:27;;;;;;;8.38;1.27;;;18.90;99.90;;;;;;5111560;28;20106;-50
2022/06/28 09:16:54;;;;;;;8.80;1.50;;;19.30;99.90;;;;;;5125614;27;20042;-46
2022/06/28 09:19:38;;;;;;;5.78;0.93;;;19.40;99.90;;;;;;5131388;27;20458;-50
2022/06/28 09:22:04;;;;;;;4.00;1.23;;;19.70;99.90;;;;;;5131353;27;20130;-49
2022/06/28 09:24:31;;;;;;;7.13;1.20;;;19.90;99.90;;;;;;5131025;27;20039;-52
2022/06/28 09:27:05;;;;;;;8.57;1.38;;;20.00;99.90;;;;;;5116835;27;20470;-52
2022/06/28 09:29:50;;;;;;;6.13;1.23;;;20.00;99.90;;;;;;5110772;28;20039;-51
2022/06/28 09:32:24;;;;;;;8.95;1.80;;;20.10;99.90;;;;;;5110467;28;20044;-49
2022/06/28 09:35:09;;;;;;;7.10;1.30;;;20.20;99.90;;;;;;5092408;28;20050;-49
2022/06/28 09:37:48;;;;;;;6.95;1.38;;;20.50;99.90;;;;;;5110263;28;20035;-51
2022/06/28 09:40:17;;;;;;;8.55;2.17;;;20.50;99.90;;;;;;5110733;28;20047;-51
2022/06/28 09:42:45;;;;;;;6.90;1.38;;;20.50;99.90;;;;;;5110620;28;20047;-52
2022/06/28 09:45:13;;;;;;;8.48;1.48;;;20.60;99.90;;;;;;5110633;28;20379;-50
2022/06/28 09:47:48;;;;;;;5.82;1.48;;;20.70;99.90;;;;;;5110588;28;20522;-50
2022/06/28 09:50:20;;;;;;;6.28;1.02;;;20.90;99.90;;;;;;5110234;28;20039;-51
2022/06/28 09:52:46;;;;;;;6.53;0.93;;;21.00;99.90;;;;;;5110283;28;20042;-51
2022/06/28 09:55:16;;;;;;;5.93;1.17;;;21.20;99.90;;;;;;5100081;28;20494;-54
2022/06/28 09:57:45;;;;;;;5.18;1.08;;;21.10;99.90;;;;;;5130704;28;20046;-53
2022/06/28 10:00:15;;;;;;;4.35;0.90;;;20.90;99.90;;;;;;5131059;28;20074;-53
2022/06/28 10:02:42;;;;;;;5.60;1.00;;;20.90;99.90;;;;;;5130538;28;20043;-54
2022/06/28 10:05:09;;;;;;;5.43;1.05;;;20.70;99.90;;;;;;5130945;28;20043;-50
2022/06/28 10:07:36;;;;;;;5.35;1.00;;;20.80;99.90;;;;;;5130541;28;20046;-51
2022/06/28 10:10:04;;;;;;;5.30;1.10;;;20.90;99.90;;;;;;5130728;28;20092;-53
2022/06/28 10:15:17;;;;;;;;;;;21.20;99.90;;;;;;5131354;28;20097;-51
2022/06/28 10:18:15;;;;;;;4.72;1.20;;;21.30;99.90;;;;;;5134228;27;19915;-53
2022/06/28 10:20:44;;;;;;;4.55;1.00;;;21.30;99.90;;;;;;5088723;27;20095;-53
2022/06/28 10:23:33;;;;;;;6.78;1.17;;;21.20;99.90;;;;;;5134679;27;20054;-53
2022/06/28 10:26:05;;;;;;;5.55;1.15;;;21.50;99.90;;;;;;5134716;27;20078;-52
2022/06/28 10:28:35;;;;;;;6.15;1.30;;;21.60;99.90;;;;;;5134428;27;20172;-51
2022/06/28 10:31:22;;;;;;;5.20;1.02;;;21.70;99.90;;;;;;5115782;27;20095;-54
2022/06/28 10:33:53;;;;;;;5.07;1.10;;;21.70;99.90;;;;;;5134594;27;20031;-54
2022/06/28 10:36:22;;;;;;;8.45;1.20;;;21.80;99.90;;;;;;5133943;27;20043;-53
2022/06/28 10:39:08;;;;;;;5.70;0.90;;;22.00;99.90;;;;;;5133891;27;20596;-54
2022/06/28 10:42:05;;;;;;;3.28;0.88;;;21.70;99.90;;;;;;5134228;27;20046;-51
2022/06/28 10:44:31;;;;;;;3.47;0.70;;;21.80;99.80;;;;;;5134287;27;20039;-50
2022/06/28 10:47:05;;;;;;;3.97;0.88;;;21.80;99.90;;;;;;5133987;27;20043;-54
2022/06/28 10:49:45;;;;;;;4.70;0.90;;;21.70;99.90;;;;;;5134265;27;20419;-53
2022/06/28 10:52:14;;;;;;;5.90;0.85;;;22.10;99.90;;;;;;5124044;27;20044;-53
2022/06/28 10:55:03;;;;;;;4.93;0.90;;;21.70;99.90;;;;;;5113570;28;20042;-52
2022/06/28 10:57:38;;;;;;;5.57;0.70;;;21.30;99.90;;;;;;5100339;28;20126;-54
2022/06/28 11:00:24;;;;;;;3.88;0.63;;;21.70;99.90;;;;;;5113557;27;20122;-49
2022/06/28 11:02:49;;;;;;;3.72;0.73;;;21.80;99.80;;;;;;5112468;28;20048;-53
2022/06/28 11:05:17;;;;;;;3.97;0.82;;;21.80;99.90;;;;;;5113394;28;20047;-53
2022/06/28 11:07:58;;;;;;;4.47;0.80;;;22.00;99.90;;;;;;5113026;28;20138;-52
2022/06/28 11:10:24;;;;;;;5.30;1.02;;;22.20;99.90;;;;;;5113422;28;20032;-53
2022/06/28 11:12:50;;;;;;;12.85;2.35;;;22.30;99.90;;;;;;5113404;28;20443;-51
2022/06/28 11:15:36;;;;;;;2.60;0.70;;;22.30;99.90;;;;;;5112790;28;20062;-52
2022/06/28 11:18:13;;;;;;;4.20;0.60;;;22.60;97.50;;;;;;5113274;28;20035;-53
2022/06/28 11:20:39;;;;;;;4.65;0.80;;;22.70;99.90;;;;;;5113122;28;20428;-53
2022/06/28 11:23:06;;;;;;;4.72;0.90;;;22.90;98.70;;;;;;5094558;28;20035;-52
2022/06/28 11:28:16;;;;;;;4.10;0.80;;;22.90;99.90;;;;;;5096470;28;20050;-51
2022/06/28 11:30:42;;;;;;;3.67;0.70;;;23.00;98.40;;;;;;5112865;28;20040;-49
2022/06/28 11:33:10;;;;;;;4.20;0.85;;;22.90;97.10;;;;;;5113037;28;20043;-54
2022/06/28 11:35:37;;;;;;;5.22;0.80;;;23.00;99.40;;;;;;5112599;28;20043;-52
2022/06/28 11:38:14;;;;;;;4.57;0.98;;;23.20;96.80;;;;;;5112184;28;20036;-52
2022/06/28 11:40:40;;;;;;;2.53;0.80;;;23.00;99.70;;;;;;5112841;28;20471;-53
2022/06/28 11:43:11;;;;;;;4.15;0.80;;;22.90;95.10;;;;;;5112435;28;20070;-51
2022/06/28 11:45:40;;;;;;;5.00;1.02;;;23.30;99.10;;;;;;5112720;28;20501;-53
2022/06/28 11:48:10;;;;;;;9.63;1.10;;;23.50;99.90;;;;;;5112709;28;20067;-54
2022/06/28 11:50:46;;;;;;;5.85;1.25;;;23.80;97.90;;;;;;5112593;28;20036;-51
2022/06/28 11:53:14;;;;;;;4.63;0.75;;;23.70;96.00;;;;;;5112591;27;20067;-51
2022/06/28 11:56:09;;;;;;;4.80;1.10;;;23.80;97.70;;;;;;5112435;28;20413;-52
2022/06/28 11:58:37;;;;;;;9.65;1.00;;;24.20;97.30;;;;;;5083712;28;20054;-53
2022/06/28 12:01:13;;;;;;;5.85;1.15;;;24.00;98.50;;;;;;5111829;28;20126;-53
2022/06/28 12:03:42;;;;;;;4.70;0.80;;;23.90;95.30;;;;;;5112410;28;20457;-52
2022/06/28 12:06:19;;;;;;;6.50;0.68;;;23.80;95.10;;;;;;5112226;28;20119;-53
2022/06/28 12:09:01;;;;;;;6.03;0.90;;;24.00;95.60;;;;;;5093507;28;20490;-48
2022/06/28 12:11:31;;;;;;;3.70;0.68;;;23.80;94.30;;;;;;5112164;28;20041;-53
2022/06/28 12:13:59;;;;;;;4.38;0.70;;;24.00;94.40;;;;;;5111967;28;20123;-52
2022/06/28 12:16:39;;;;;;;4.18;0.70;;;24.20;94.00;;;;;;5111828;28;20046;-52
2022/06/28 12:19:28;;;;;;;4.78;0.90;;;24.30;94.10;;;;;;5110903;28;20027;-53
2022/06/28 12:22:07;;;;;;;6.40;1.00;;;24.50;95.30;;;;;;5110785;28;20043;-53
2022/06/28 12:24:44;;;;;;;5.90;0.90;;;24.60;92.90;;;;;;5111648;28;20108;-50
2022/06/28 12:27:15;;;;;;;4.53;0.80;;;24.50;93.80;;;;;;5111697;28;20034;-49
2022/06/28 12:29:41;;;;;;;4.07;0.90;;;24.60;95.10;;;;;;5111748;28;20062;-53
2022/06/28 12:32:07;;;;;;;4.13;0.75;;;24.40;93.20;;;;;;5111634;28;20032;-52
2022/06/28 12:34:33;;;;;;;4.40;0.90;;;24.70;93.10;;;;;;5111389;28;20036;-52
2022/06/28 12:36:59;;;;;;;4.88;0.98;;;24.60;94.30;;;;;;5111034;28;20100;-49
2022/06/28 12:39:24;;;;;;;4.82;0.93;;;24.60;93.10;;;;;;5111429;28;20382;-53
2022/06/28 12:41:51;;;;;;;5.75;1.00;;;24.90;94.40;;;;;;5111419;28;20352;-51
2022/06/28 12:44:17;;;;;;;4.25;1.00;;;24.60;94.00;;;;;;5111468;28;20067;-51
2022/06/28 12:46:44;;;;;;;4.82;0.70;;;24.60;92.70;;;;;;5111465;27;20047;-52
2022/06/28 12:49:10;;;;;;;5.53;0.98;;;24.90;91.80;;;;;;5110946;28;20048;-52
2022/06/28 12:51:36;;;;;;;5.78;0.88;;;24.80;91.60;;;;;;5111357;28;20035;-52
2022/06/28 12:54:02;;;;;;;8.15;1.10;;;25.40;92.70;;;;;;5111284;28;20086;-50
2022/06/28 12:56:28;;;;;;;4.40;1.00;;;25.40;93.10;;;;;;5110750;28;20079;-49